»·PEaware :: CAP441 L55-L88

CAP441 :: L55-L88

FLIGHT INFORMATION

Flight Status: Arrived
Operator: Unknown
More flights by this operator :: More flights under this callsign
Pilot: Michael T. (14117)
Aircraft: CESSNA 172 SKYHAWK
(C172)
More flights by this aircraft type
Origin: L55
Destination: L88 New Cuyama
United States
More flights between these airports :: More routes between these airports
Route: DIRECT
File this flight plan on PilotEdge
Remarks: CAT-01
Altitude:
(Current/Filed)
3,500ft
Speed:
(Current/Filed)
115kts
Departed: 25-Jul-19 02:58 PM
Arrived: 25-Jul-19 03:31 PM
Distance/Time
Traveled:
Not Available
Distance/Time
To Go:
Arrived

Flight Plot

Page will automatically refresh every two minutes.


Map Options




Map Legend


Flown Route
Filed Route
Departure Airport
Arrival Airport
Navaid (VOR, NDB)
Fix

Horizontal Profiles

Position Reports

Time Latitude Longitude Heading Altitude Ground
Speed
25-Jul-19 14:14 35.103474 -120.624708 214 17ft 0kts
25-Jul-19 14:15 35.103474 -120.624708 214 17ft 0kts
25-Jul-19 14:16 35.103474 -120.624708 214 17ft 0kts
25-Jul-19 14:17 35.103474 -120.624708 214 17ft 0kts
25-Jul-19 14:18 35.103474 -120.624708 214 17ft 0kts
25-Jul-19 14:19 35.103474 -120.624708 214 17ft 0kts
25-Jul-19 14:20 35.103474 -120.624708 214 17ft 0kts
25-Jul-19 14:21 35.103474 -120.624708 214 17ft 0kts
25-Jul-19 14:22 35.103474 -120.624708 214 17ft 0kts
25-Jul-19 14:23 35.103474 -120.624708 214 17ft 0kts
25-Jul-19 14:24 35.103474 -120.624708 214 17ft 0kts
25-Jul-19 14:25 35.103474 -120.624708 214 17ft 0kts
25-Jul-19 14:26 35.103474 -120.624708 214 17ft 0kts
25-Jul-19 14:27 35.103474 -120.624708 214 17ft 0kts
25-Jul-19 14:28 35.103474 -120.624708 214 17ft 0kts
25-Jul-19 14:29 35.103474 -120.624708 214 17ft 0kts
25-Jul-19 14:30 35.103474 -120.624708 214 17ft 0kts
25-Jul-19 14:31 35.103474 -120.624708 214 17ft 0kts
25-Jul-19 14:33 35.103474 -120.624708 214 17ft 0kts
25-Jul-19 14:34 35.103474 -120.624708 214 17ft 0kts
25-Jul-19 14:35 35.103474 -120.624708 214 17ft 0kts
25-Jul-19 14:36 35.103474 -120.624708 214 17ft 0kts
25-Jul-19 14:37 35.103474 -120.624708 214 17ft 0kts
25-Jul-19 14:38 35.103474 -120.624708 214 17ft 0kts
25-Jul-19 14:39 35.103474 -120.624708 214 17ft 0kts
25-Jul-19 14:40 35.103474 -120.624708 214 17ft 0kts
25-Jul-19 14:41 35.103474 -120.624708 214 17ft 0kts
25-Jul-19 14:42 35.103474 -120.624708 214 17ft 0kts
25-Jul-19 14:43 35.103474 -120.624708 214 17ft 0kts
25-Jul-19 14:44 35.103474 -120.624708 214 17ft 0kts
25-Jul-19 14:45 35.103474 -120.624708 214 17ft 0kts
25-Jul-19 14:46 35.103474 -120.624708 214 17ft 0kts
25-Jul-19 14:47 35.103474 -120.624708 214 17ft 0kts
25-Jul-19 14:48 35.103474 -120.624708 214 17ft 0kts
25-Jul-19 14:49 35.103474 -120.624708 214 17ft 0kts
25-Jul-19 14:50 35.103474 -120.624708 214 17ft 0kts
25-Jul-19 14:50 35.103474 -120.624708 214 17ft 0kts
25-Jul-19 14:52 35.103474 -120.624708 214 17ft 0kts
25-Jul-19 14:53 35.103472 -120.624708 214 17ft 0kts
25-Jul-19 14:53 35.103361 -120.624771 169 17ft 3kts
25-Jul-19 14:54 35.102744 -120.623648 122 17ft 7kts
25-Jul-19 14:56 35.101098 -120.622439 127 17ft 7kts
25-Jul-19 14:56 35.099586 -120.619462 54 17ft 7kts
25-Jul-19 14:57 35.104415 -120.628906 296 267ft 73kts
25-Jul-19 14:58 35.095728 -120.632617 98 896ft 95kts
25-Jul-19 14:59 35.089091 -120.608339 72 2017ft 60kts
25-Jul-19 15:00 35.104334 -120.606530 296 2522ft 103kts
25-Jul-19 15:01 35.121323 -120.630631 314 3358ft 96kts
25-Jul-19 15:02 35.147791 -120.654690 7 3493ft 126kts
25-Jul-19 15:03 35.166166 -120.622964 112 3502ft 131kts
25-Jul-19 15:04 35.146369 -120.584059 122 3495ft 130kts
25-Jul-19 15:05 35.127932 -120.548041 113 3502ft 127kts
25-Jul-19 15:06 35.114405 -120.505724 109 3498ft 132kts
25-Jul-19 15:07 35.108622 -120.461558 89 3501ft 129kts
25-Jul-19 15:08 35.109731 -120.418558 86 3503ft 128kts
25-Jul-19 15:09 35.111514 -120.373230 86 3503ft 133kts
25-Jul-19 15:10 35.113299 -120.328038 86 3497ft 129kts
25-Jul-19 15:11 35.114977 -120.285164 86 3499ft 124kts
25-Jul-19 15:12 35.116615 -120.243140 86 3498ft 123kts
25-Jul-19 15:13 35.112866 -120.202008 109 3500ft 123kts
25-Jul-19 15:14 35.102508 -120.170568 111 3497ft 123kts
25-Jul-19 15:15 35.090999 -120.136614 111 3487ft 124kts
25-Jul-19 15:16 35.077745 -120.097686 111 3490ft 124kts
25-Jul-19 15:17 35.064546 -120.058908 111 3491ft 123kts
25-Jul-19 15:18 35.052499 -120.019219 115 3464ft 122kts
25-Jul-19 15:19 35.037743 -119.979893 111 3532ft 129kts
25-Jul-19 15:20 35.023797 -119.939423 112 3538ft 129kts
25-Jul-19 15:21 35.013812 -119.910305 112 3540ft 129kts
25-Jul-19 15:22 34.999963 -119.869925 112 3538ft 130kts
25-Jul-19 15:23 34.995039 -119.855276 110 3532ft 127kts
25-Jul-19 15:24 34.989215 -119.834485 107 3254ft 124kts
25-Jul-19 15:25 34.977705 -119.793212 104 3039ft 133kts
25-Jul-19 15:26 34.965801 -119.753293 113 2551ft 126kts
25-Jul-19 15:27 34.962805 -119.744269 109 2695ft 111kts
25-Jul-19 15:28 34.952488 -119.716253 116 2804ft 66kts
25-Jul-19 15:29 34.944463 -119.696787 116 2365ft 59kts
25-Jul-19 15:30 34.941515 -119.689341 286 2206ft 13kts
25-Jul-19 15:31 34.943659 -119.691433 292 2206ft 8kts
25-Jul-19 15:32 34.943745 -119.691729 287 2206ft 0kts
25-Jul-19 15:33 34.943745 -119.691729 287 2206ft 0kts
25-Jul-19 15:34 34.943745 -119.691729 287 2206ft 0kts
25-Jul-19 15:35 34.943745 -119.691729 287 2206ft 0kts
25-Jul-19 15:36 34.943745 -119.691729 287 2206ft 0kts

Navigation Log

Ident Type
Flight plan parsing failed, navigation log unavailable